Time;durP1;ratioP1;P1;durP2;ratioP2;P2;SDS_P1;SDS_P2;PMS_P1;PMS_P2;Temp;Humidity;BMP_temperature;BMP_pressure;BME280_temperature;BME280_humidity;BME280_pressure;Samples;Min_cycle;Max_cycle;Signal;HPM_P1;HPM_P2
2022/01/28 00:01:16;;;;;;;68.93;49.30;;;26.10;99.90;;;;;;5044355;28;20092;-69
2022/01/28 00:03:42;;;;;;;65.72;46.60;;;26.10;99.90;;;;;;5055301;28;20112;-70
2022/01/28 00:06:09;;;;;;;62.97;45.70;;;26.10;99.90;;;;;;5054918;28;20432;-70
2022/01/28 00:08:36;;;;;;;68.65;45.80;;;26.10;99.90;;;;;;5054916;28;20034;-69
2022/01/28 00:11:02;;;;;;;65.13;45.38;;;26.00;99.90;;;;;;5054941;28;20037;-70
2022/01/28 00:13:34;;;;;;;62.25;46.10;;;26.00;99.90;;;;;;5054667;28;20017;-71
2022/01/28 00:16:29;;;;;;;70.72;48.65;;;26.00;99.90;;;;;;5054834;28;20021;-71
2022/01/28 00:39:56;;;;;;;64.78;46.10;;;26.50;99.90;;;;;;5074006;28;20401;-72
2022/01/28 00:42:23;;;;;;;62.78;44.88;;;26.50;99.90;;;;;;5072903;28;20032;-71
2022/01/28 00:44:49;;;;;;;53.05;42.15;;;26.50;99.90;;;;;;5053688;28;20028;-71
2022/01/28 00:47:16;;;;;;;57.90;43.90;;;26.60;99.90;;;;;;5039944;28;20033;-75
2022/01/28 00:49:42;;;;;;;85.43;64.03;;;26.50;99.90;;;;;;5052706;28;20377;-73
2022/01/28 00:52:09;;;;;;;61.60;44.05;;;26.70;99.90;;;;;;5053995;28;20078;-72
2022/01/28 00:54:35;;;;;;;54.17;42.05;;;26.80;99.90;;;;;;5053374;28;20389;-71
2022/01/28 00:57:02;;;;;;;50.72;39.35;;;26.90;99.90;;;;;;5053818;28;20021;-69
2022/01/28 00:59:29;;;;;;;51.00;39.85;;;27.00;99.90;;;;;;5053538;28;20078;-70
2022/01/28 01:01:55;;;;;;;56.30;42.58;;;27.00;99.90;;;;;;5053988;28;20446;-71
2022/01/28 01:04:23;;;;;;;56.30;42.58;;;27.10;99.90;;;;;;5051485;28;20022;-69
2022/01/28 01:06:50;;;;;;;55.72;42.85;;;27.20;99.90;;;;;;5054565;28;20144;-70
2022/01/28 01:09:17;;;;;;;65.93;44.47;;;27.30;99.90;;;;;;5053858;28;20032;-69
2022/01/28 01:11:43;;;;;;;70.38;46.78;;;27.30;99.90;;;;;;5053930;28;20111;-70
2022/01/28 01:14:11;;;;;;;64.35;43.95;;;27.40;99.90;;;;;;5053130;28;20021;-71
2022/01/28 01:17:05;;;;;;;60.70;42.67;;;27.50;99.90;;;;;;5053580;28;20386;-73
2022/01/28 01:19:27;;;;;;;76.28;53.08;;;27.60;99.90;;;;;;5052541;28;20462;-71
2022/01/28 01:21:58;;;;;;;64.10;44.05;;;27.70;99.90;;;;;;5053798;28;20021;-70
2022/01/28 01:24:27;;;;;;;75.20;54.80;;;27.80;99.90;;;;;;5058003;28;20425;-73
2022/01/28 01:26:54;;;;;;;68.53;46.22;;;27.80;99.90;;;;;;5053283;28;20021;-72
2022/01/28 01:29:23;;;;;;;111.40;82.28;;;28.00;99.90;;;;;;5053215;28;20017;-72
2022/01/28 01:31:49;;;;;;;99.20;70.85;;;28.00;99.90;;;;;;5053370;28;20099;-70
2022/01/28 01:34:20;;;;;;;55.22;41.45;;;28.00;99.90;;;;;;5051975;28;20029;-70
2022/01/28 01:36:47;;;;;;;59.53;45.67;;;28.00;99.90;;;;;;5052716;28;20112;-71
2022/01/28 01:39:20;;;;;;;58.28;44.72;;;28.10;99.90;;;;;;5051701;28;20049;-70
2022/01/28 01:41:54;;;;;;;57.75;43.10;;;28.20;99.90;;;;;;5059757;28;20025;-70
2022/01/28 01:44:58;;;;;;;60.60;45.40;;;28.30;99.90;;;;;;5056077;28;20025;-71
2022/01/28 01:52:31;;;;;;;61.60;44.88;;;28.70;99.90;;;;;;5044299;28;20031;-71
2022/01/28 01:54:57;;;;;;;60.72;44.83;;;28.70;99.90;;;;;;5049733;28;20021;-70
2022/01/28 01:57:24;;;;;;;58.40;45.17;;;28.80;99.90;;;;;;5050019;28;20025;-69
2022/01/28 01:59:50;;;;;;;52.25;37.45;;;28.70;99.90;;;;;;5051747;28;20112;-70
2022/01/28 02:02:17;;;;;;;48.28;37.40;;;28.70;99.90;;;;;;5045050;28;20028;-69
2022/01/28 02:04:44;;;;;;;58.47;38.28;;;28.70;99.90;;;;;;5048207;28;20101;-70
2022/01/28 02:07:15;;;;;;;46.35;35.75;;;28.70;99.90;;;;;;5047491;28;20022;-70
2022/01/28 02:09:43;;;;;;;42.55;34.45;;;28.60;99.90;;;;;;5055982;28;20049;-72
2022/01/28 02:12:10;;;;;;;43.78;32.88;;;28.70;99.90;;;;;;5053650;28;20090;-72
2022/01/28 02:14:37;;;;;;;40.95;33.28;;;28.70;99.90;;;;;;5052001;28;20393;-72
2022/01/28 02:17:04;;;;;;;39.72;29.73;;;28.80;99.90;;;;;;5048801;28;20112;-72
2022/01/28 02:19:31;;;;;;;67.55;49.97;;;28.90;99.90;;;;;;5052644;28;20060;-71
2022/01/28 02:21:57;;;;;;;69.53;52.30;;;29.00;99.90;;;;;;5053421;28;20028;-70
2022/01/28 02:24:31;;;;;;;45.92;33.03;;;29.10;99.90;;;;;;5050118;28;20127;-71
2022/01/28 02:26:58;;;;;;;39.65;29.30;;;29.10;99.90;;;;;;5048404;28;20017;-71
2022/01/28 02:29:30;;;;;;;46.20;29.88;;;29.10;99.90;;;;;;5050667;28;20025;-71
2022/01/28 02:31:59;;;;;;;37.33;29.92;;;29.10;99.90;;;;;;5054452;28;20025;-73
2022/01/28 02:34:26;;;;;;;44.33;32.78;;;29.30;99.90;;;;;;5054114;28;20477;-72
2022/01/28 02:36:54;;;;;;;39.15;29.33;;;29.30;99.90;;;;;;5052125;28;20485;-70
2022/01/28 02:39:21;;;;;;;40.42;32.58;;;29.40;99.90;;;;;;5055458;28;20052;-70
2022/01/28 02:41:52;;;;;;;42.30;32.58;;;29.50;99.90;;;;;;5056256;28;20056;-71
2022/01/28 02:44:26;;;;;;;37.53;28.27;;;29.50;99.90;;;;;;5052963;28;20029;-70
2022/01/28 02:46:57;;;;;;;38.92;31.40;;;29.60;99.90;;;;;;5054840;28;20378;-72
2022/01/28 02:49:27;;;;;;;41.30;33.08;;;29.70;99.90;;;;;;5055113;28;20102;-72
2022/01/28 02:51:57;;;;;;;41.40;31.00;;;29.80;99.90;;;;;;5055204;28;20032;-70
2022/01/28 02:54:23;;;;;;;44.22;34.28;;;29.90;99.90;;;;;;5055439;28;20394;-71
2022/01/28 02:56:53;;;;;;;43.40;34.42;;;29.80;99.90;;;;;;5055358;28;20041;-72
2022/01/28 02:59:21;;;;;;;53.92;40.30;;;29.70;99.90;;;;;;5055089;28;20103;-72
2022/01/28 03:01:48;;;;;;;34.88;27.52;;;29.80;99.90;;;;;;5054987;28;20155;-72
2022/01/28 03:04:46;;;;;;;39.20;29.65;;;29.90;99.90;;;;;;5052213;28;20027;-71
2022/01/28 03:07:03;;;;;;;60.10;38.80;;;29.80;99.90;;;;;;5054493;28;20036;-72
2022/01/28 03:09:48;;;;;;;39.88;32.30;;;29.90;99.90;;;;;;5055333;28;20370;-70
2022/01/28 03:12:18;;;;;;;56.90;38.83;;;29.90;99.90;;;;;;5054196;28;20025;-72
2022/01/28 03:17:50;;;;;;;38.80;26.85;;;30.10;99.90;;;;;;5054706;28;20055;-70
2022/01/28 03:22:36;;;;;;;41.15;31.77;;;30.10;99.90;;;;;;5054663;28;20432;-75
2022/01/28 03:25:03;;;;;;;37.42;29.90;;;30.20;99.90;;;;;;5049136;28;20092;-71
2022/01/28 03:30:00;;;;;;;57.33;44.80;;;30.50;99.90;;;;;;5054984;28;20104;-71
2022/01/28 03:32:26;;;;;;;47.50;33.03;;;30.60;99.90;;;;;;5063280;28;20029;-71
2022/01/28 03:34:53;;;;;;;46.67;33.10;;;30.70;99.90;;;;;;5059395;28;20478;-70
2022/01/28 03:37:21;;;;;;;38.17;29.52;;;30.70;99.90;;;;;;5064501;28;20134;-72
2022/01/28 03:39:48;;;;;;;38.55;28.85;;;30.70;99.90;;;;;;5062678;28;20079;-70
2022/01/28 03:42:15;;;;;;;35.00;24.52;;;30.70;99.90;;;;;;5062408;28;20462;-70
2022/01/28 03:44:41;;;;;;;32.08;24.15;;;30.80;99.00;;;;;;5065576;28;20021;-71
2022/01/28 03:47:08;;;;;;;35.60;25.30;;;30.70;97.90;;;;;;5061710;28;20027;-69
2022/01/28 03:49:34;;;;;;;34.67;29.30;;;30.70;97.30;;;;;;5069531;28;20017;-68
2022/01/28 03:52:01;;;;;;;36.80;25.58;;;30.70;97.90;;;;;;5053268;28;20033;-69
2022/01/28 03:54:27;;;;;;;37.92;24.05;;;30.80;97.70;;;;;;5049922;28;20055;-70
2022/01/28 03:56:54;;;;;;;40.42;28.95;;;30.80;96.90;;;;;;5054417;28;20021;-69
2022/01/28 03:59:20;;;;;;;34.25;27.08;;;30.90;97.30;;;;;;5054246;28;20040;-72
2022/01/28 04:01:49;;;;;;;32.35;25.27;;;30.90;97.20;;;;;;5054751;28;20029;-70
2022/01/28 04:11:59;;;;;;;30.20;24.73;;;31.10;96.20;;;;;;5056671;28;20497;-71
2022/01/28 04:19:35;;;;;;;31.73;25.65;;;31.20;95.70;;;;;;5046578;28;20726;-70
2022/01/28 04:22:02;;;;;;;34.55;25.27;;;31.20;94.70;;;;;;5053184;28;20033;-70
2022/01/28 04:24:28;;;;;;;28.17;23.85;;;31.30;94.30;;;;;;5052912;28;20044;-71
2022/01/28 04:26:55;;;;;;;34.15;25.73;;;31.50;94.60;;;;;;5057484;28;20024;-70
2022/01/28 04:29:21;;;;;;;42.88;34.80;;;31.50;93.60;;;;;;5052977;28;20053;-71
2022/01/28 04:31:48;;;;;;;43.58;29.67;;;31.60;93.50;;;;;;5052572;28;20029;-73
2022/01/28 04:34:16;;;;;;;36.95;26.50;;;31.60;93.80;;;;;;5054072;28;20040;-72
2022/01/28 04:36:54;;;;;;;32.70;25.83;;;31.60;93.20;;;;;;5054151;28;20036;-71
2022/01/28 04:39:33;;;;;;;35.90;26.33;;;31.80;93.20;;;;;;5053247;28;20056;-70
2022/01/28 04:47:21;;;;;;;36.22;26.58;;;31.60;92.20;;;;;;5054110;28;20551;-68
2022/01/28 04:55:04;;;;;;;28.45;24.60;;;31.90;93.10;;;;;;5053453;28;20026;-71
2022/01/28 04:57:46;;;;;;;34.05;25.30;;;32.00;92.30;;;;;;5051288;28;20033;-72
2022/01/28 05:08:12;;;;;;;33.47;23.52;;;32.00;91.40;;;;;;5063509;28;20024;-71
2022/01/28 05:13:47;;;;;;;26.23;22.48;;;31.80;90.80;;;;;;5058553;28;20029;-69
2022/01/28 05:26:37;;;;;;;38.13;28.45;;;32.20;89.70;;;;;;5046033;28;20021;-69
2022/01/28 05:29:04;;;;;;;36.42;22.77;;;32.20;88.60;;;;;;5053560;28;20385;-69
2022/01/28 05:31:31;;;;;;;31.40;23.73;;;32.30;88.30;;;;;;5053489;28;20025;-69
2022/01/28 05:33:58;;;;;;;26.63;22.60;;;32.20;88.40;;;;;;5053284;28;20079;-70
2022/01/28 05:36:25;;;;;;;30.95;23.42;;;32.30;88.70;;;;;;5053217;28;20508;-69
2022/01/28 05:38:52;;;;;;;30.25;24.50;;;32.20;88.30;;;;;;5053008;28;20131;-69
2022/01/28 05:41:19;;;;;;;32.15;26.10;;;32.20;88.80;;;;;;5053093;28;20545;-69
2022/01/28 05:43:45;;;;;;;28.50;22.75;;;32.20;87.90;;;;;;5053213;28;20417;-69
2022/01/28 05:46:13;;;;;;;30.38;24.65;;;32.30;87.20;;;;;;5053024;28;20068;-69
2022/01/28 05:48:39;;;;;;;33.10;23.98;;;32.50;87.70;;;;;;5056638;28;20033;-70
2022/01/28 05:51:06;;;;;;;27.00;21.65;;;32.40;86.00;;;;;;5063316;28;20020;-70
2022/01/28 05:53:33;;;;;;;28.98;24.15;;;32.40;84.20;;;;;;5063553;28;20028;-67
2022/01/28 05:55:59;;;;;;;27.90;22.80;;;32.30;86.40;;;;;;5061640;28;20032;-70
2022/01/28 05:58:26;;;;;;;27.25;22.48;;;32.40;86.80;;;;;;5054540;28;20063;-70
2022/01/28 06:00:52;;;;;;;28.17;22.95;;;32.30;87.40;;;;;;5052843;28;20025;-71
2022/01/28 06:03:19;;;;;;;28.38;24.38;;;32.30;85.90;;;;;;5048779;28;20090;-69
2022/01/28 06:05:47;;;;;;;28.00;21.27;;;32.30;86.40;;;;;;5059998;28;20024;-71
2022/01/28 06:08:14;;;;;;;27.75;22.17;;;32.50;84.60;;;;;;5063884;28;20025;-71
2022/01/28 06:10:41;;;;;;;27.60;22.27;;;32.60;82.80;;;;;;5053178;28;20056;-70
2022/01/28 06:13:09;;;;;;;31.85;23.33;;;32.70;82.40;;;;;;5056648;28;20521;-70
2022/01/28 06:15:39;;;;;;;28.10;21.98;;;32.80;84.20;;;;;;5053253;28;20430;-70
2022/01/28 06:18:05;;;;;;;28.30;23.20;;;32.90;82.40;;;;;;5052640;28;20029;-70
2022/01/28 06:20:32;;;;;;;28.88;22.67;;;33.00;84.40;;;;;;5060873;28;20159;-70
2022/01/28 06:22:58;;;;;;;27.80;21.67;;;33.10;80.50;;;;;;5056675;28;20274;-72
2022/01/28 06:25:25;;;;;;;23.58;21.08;;;33.10;81.00;;;;;;5052630;28;20013;-70
2022/01/28 06:27:51;;;;;;;33.00;20.48;;;33.10;81.30;;;;;;5052765;28;20104;-71
2022/01/28 06:30:19;;;;;;;26.23;20.70;;;33.10;81.00;;;;;;5053283;28;20021;-72
2022/01/28 06:32:47;;;;;;;28.58;19.92;;;33.10;78.70;;;;;;5047738;28;20033;-70
2022/01/28 06:35:14;;;;;;;31.08;21.77;;;33.00;81.00;;;;;;5051659;28;20032;-70
2022/01/28 06:37:42;;;;;;;27.75;24.13;;;33.00;81.00;;;;;;5061697;28;20107;-69
2022/01/28 06:40:11;;;;;;;32.65;21.58;;;32.80;80.50;;;;;;5061859;28;20107;-69
2022/01/28 06:42:38;;;;;;;29.80;21.05;;;32.80;80.20;;;;;;5059805;28;20061;-69
2022/01/28 06:45:06;;;;;;;26.45;21.55;;;32.70;80.20;;;;;;5058277;28;20017;-68
2022/01/28 06:47:35;;;;;;;29.05;24.17;;;32.80;80.70;;;;;;5061180;28;20020;-69
2022/01/28 06:50:06;;;;;;;25.98;23.17;;;32.90;79.50;;;;;;5061875;28;20024;-69
2022/01/28 06:52:33;;;;;;;23.13;20.75;;;32.90;80.70;;;;;;5055728;28;20096;-70
2022/01/28 06:55:01;;;;;;;28.27;22.10;;;32.90;80.30;;;;;;5056164;28;20446;-68
2022/01/28 06:57:29;;;;;;;26.20;21.95;;;32.90;80.00;;;;;;5055507;28;20436;-67
2022/01/28 06:59:56;;;;;;;28.42;23.63;;;32.80;80.10;;;;;;5055938;28;20021;-68
2022/01/28 07:02:22;;;;;;;25.17;21.95;;;32.80;78.90;;;;;;5054283;28;20078;-69
2022/01/28 07:04:50;;;;;;;30.48;22.05;;;32.70;79.50;;;;;;5051214;28;20028;-70
2022/01/28 07:07:17;;;;;;;27.38;23.42;;;32.70;79.30;;;;;;5050274;28;20078;-71
2022/01/28 07:09:45;;;;;;;37.50;24.70;;;32.70;80.50;;;;;;5045323;28;20120;-71
2022/01/28 07:12:12;;;;;;;34.97;23.55;;;32.70;79.80;;;;;;5047678;28;20068;-69
2022/01/28 07:14:38;;;;;;;30.65;24.60;;;32.70;81.10;;;;;;5055323;28;20048;-69
2022/01/28 07:17:05;;;;;;;29.67;23.85;;;32.80;82.00;;;;;;5055501;28;20028;-72
2022/01/28 07:19:32;;;;;;;31.60;25.08;;;32.90;81.30;;;;;;5055717;28;20032;-75
2022/01/28 07:21:58;;;;;;;27.83;22.60;;;33.00;80.00;;;;;;5054982;28;20033;-73
2022/01/28 07:24:25;;;;;;;29.85;22.73;;;33.10;80.20;;;;;;5065270;28;20021;-69
2022/01/28 07:26:51;;;;;;;27.50;22.23;;;33.10;79.30;;;;;;5063890;28;20020;-70
2022/01/28 07:29:19;;;;;;;34.72;27.92;;;33.00;77.70;;;;;;5063778;28;20071;-69
2022/01/28 07:31:46;;;;;;;25.48;21.95;;;33.00;78.60;;;;;;5065818;28;20385;-70
2022/01/28 07:34:13;;;;;;;31.42;25.58;;;33.00;77.90;;;;;;5065029;28;20029;-69
2022/01/28 07:36:40;;;;;;;32.92;24.50;;;33.00;79.50;;;;;;5063500;28;20045;-69
2022/01/28 07:39:07;;;;;;;30.00;25.15;;;32.90;81.00;;;;;;5063614;28;20060;-70
2022/01/28 07:41:35;;;;;;;27.20;22.90;;;32.90;80.70;;;;;;5064810;28;20028;-70
2022/01/28 07:44:01;;;;;;;27.85;23.75;;;33.00;78.10;;;;;;5066003;28;20100;-69
2022/01/28 07:46:28;;;;;;;29.45;24.50;;;33.00;79.30;;;;;;5063981;28;20020;-70
2022/01/28 07:48:55;;;;;;;27.20;22.23;;;33.00;79.10;;;;;;5064126;28;20013;-70
2022/01/28 07:51:22;;;;;;;24.95;22.30;;;33.10;78.00;;;;;;5053915;28;20028;-69
2022/01/28 07:53:48;;;;;;;25.52;22.52;;;33.20;78.60;;;;;;5054264;28;20021;-70
2022/01/28 07:56:15;;;;;;;28.10;22.98;;;33.30;78.90;;;;;;5053925;28;20083;-69
2022/01/28 07:58:42;;;;;;;29.23;22.23;;;33.20;77.70;;;;;;5054421;28;20025;-69
2022/01/28 08:01:08;;;;;;;31.35;23.45;;;33.20;78.30;;;;;;5054946;28;20033;-66
2022/01/28 08:03:35;;;;;;;32.63;22.80;;;33.10;76.50;;;;;;5054618;28;20032;-70
2022/01/28 08:06:02;;;;;;;30.45;22.38;;;33.20;77.90;;;;;;5054045;28;20028;-69
2022/01/28 08:08:30;;;;;;;25.77;22.73;;;33.20;77.90;;;;;;5053963;28;20117;-67
2022/01/28 08:10:57;;;;;;;28.48;23.83;;;33.10;78.50;;;;;;5054469;28;20025;-69
2022/01/28 08:13:23;;;;;;;28.40;22.95;;;33.20;78.40;;;;;;5054627;28;20545;-69
2022/01/28 08:15:50;;;;;;;68.43;56.20;;;33.20;79.10;;;;;;5054360;28;20037;-70
2022/01/28 08:18:16;;;;;;;55.97;45.40;;;33.20;77.00;;;;;;5054312;28;20032;-73
2022/01/28 08:20:46;;;;;;;34.72;30.38;;;33.10;75.00;;;;;;5060640;22;20095;-71
2022/01/28 08:23:14;;;;;;;28.73;24.05;;;33.10;76.30;;;;;;5034323;28;20069;-71
2022/01/28 08:25:41;;;;;;;27.80;22.45;;;33.20;76.40;;;;;;5035731;28;20018;-70
2022/01/28 08:28:07;;;;;;;28.08;22.83;;;33.20;75.90;;;;;;5034312;28;20025;-72
2022/01/28 08:30:38;;;;;;;31.08;22.15;;;33.30;73.50;;;;;;5034736;28;20017;-71
2022/01/28 08:33:06;;;;;;;30.20;24.25;;;33.30;73.00;;;;;;5034066;28;20382;-71
2022/01/28 08:35:37;;;;;;;35.13;26.17;;;33.40;75.10;;;;;;5034056;28;20470;-69
2022/01/28 08:38:14;;;;;;;35.13;25.00;;;33.30;76.60;;;;;;5033811;28;20478;-67
2022/01/28 08:40:42;;;;;;;31.45;24.30;;;33.40;77.00;;;;;;5034234;28;20398;-71
2022/01/28 08:43:08;;;;;;;34.42;23.02;;;33.50;76.70;;;;;;5034206;28;20064;-69
2022/01/28 08:45:35;;;;;;;36.22;26.83;;;33.40;76.50;;;;;;5033670;28;20029;-71
2022/01/28 08:48:02;;;;;;;26.02;23.00;;;33.50;75.30;;;;;;5034382;28;20037;-70
2022/01/28 08:50:28;;;;;;;27.00;22.00;;;33.40;75.50;;;;;;5034185;28;20478;-71
2022/01/28 08:52:55;;;;;;;26.98;21.35;;;33.30;74.40;;;;;;5033281;28;20025;-72
2022/01/28 08:55:21;;;;;;;40.28;29.58;;;33.30;76.00;;;;;;5034233;28;20529;-70
2022/01/28 08:57:48;;;;;;;29.27;21.77;;;33.20;75.70;;;;;;5031480;28;20029;-71
2022/01/28 09:00:18;;;;;;;37.10;29.77;;;33.20;75.40;;;;;;5028315;28;20022;-72
2022/01/28 09:02:45;;;;;;;38.40;30.88;;;33.20;75.30;;;;;;5014130;28;20041;-78
2022/01/28 09:05:12;;;;;;;48.85;40.13;;;33.20;76.50;;;;;;5024525;28;20052;-70
2022/01/28 09:07:39;;;;;;;33.38;28.27;;;33.20;76.20;;;;;;5033611;28;20037;-68
2022/01/28 09:10:12;;;;;;;42.83;32.20;;;33.10;76.10;;;;;;5032528;28;20771;-70
2022/01/28 09:12:47;;;;;;;33.63;26.75;;;33.10;75.60;;;;;;5034005;28;20100;-75
2022/01/28 09:15:14;;;;;;;40.55;29.38;;;33.10;76.00;;;;;;5032828;28;20026;-70
2022/01/28 09:17:41;;;;;;;40.58;29.33;;;33.10;76.30;;;;;;5033335;28;20104;-72
2022/01/28 09:20:08;;;;;;;105.00;61.42;;;33.00;77.90;;;;;;5032611;28;20053;-67
2022/01/28 09:22:36;;;;;;;37.40;26.70;;;33.00;77.40;;;;;;5033083;28;20437;-72
2022/01/28 09:25:04;;;;;;;35.50;26.33;;;32.90;76.90;;;;;;5025235;28;20024;-73
2022/01/28 09:27:30;;;;;;;43.67;26.95;;;32.80;78.40;;;;;;5029901;28;20025;-75
2022/01/28 09:29:57;;;;;;;38.88;26.20;;;32.90;78.40;;;;;;5032918;28;20021;-72
2022/01/28 09:32:23;;;;;;;40.25;28.42;;;32.80;79.40;;;;;;5029715;28;20030;-69
2022/01/28 09:34:50;;;;;;;41.70;29.55;;;32.90;79.40;;;;;;5032745;28;20076;-72
2022/01/28 09:37:17;;;;;;;50.67;31.70;;;32.80;79.50;;;;;;5032753;28;20025;-74
2022/01/28 09:39:45;;;;;;;50.45;30.13;;;32.70;79.30;;;;;;5030504;28;20109;-70
2022/01/28 09:42:15;;;;;;;37.25;25.80;;;32.60;80.40;;;;;;5033224;28;20432;-76
2022/01/28 09:44:42;;;;;;;37.38;24.63;;;32.60;80.70;;;;;;5033046;28;20116;-74
2022/01/28 09:47:14;;;;;;;38.17;23.00;;;32.50;80.70;;;;;;5033177;28;20083;-72
2022/01/28 09:49:42;;;;;;;41.72;26.08;;;32.40;81.70;;;;;;5033288;28;20075;-74
2022/01/28 09:52:11;;;;;;;40.45;27.80;;;32.40;82.10;;;;;;5033075;28;20109;-73
2022/01/28 09:54:39;;;;;;;66.28;38.90;;;32.40;82.80;;;;;;5033441;28;20149;-72
2022/01/28 09:57:07;;;;;;;62.38;36.95;;;32.40;83.30;;;;;;5032265;28;20057;-73
2022/01/28 09:59:34;;;;;;;39.67;29.90;;;32.40;84.30;;;;;;5033049;28;20026;-73
2022/01/28 10:02:00;;;;;;;44.65;29.55;;;32.30;84.80;;;;;;5032703;28;20394;-75
2022/01/28 10:04:27;;;;;;;48.90;32.63;;;32.20;85.50;;;;;;5033066;28;20037;-73
2022/01/28 10:06:55;;;;;;;52.30;29.48;;;32.20;85.30;;;;;;5033549;28;20159;-71
2022/01/28 10:09:23;;;;;;;42.95;30.05;;;32.20;85.80;;;;;;5033130;28;20493;-76
2022/01/28 10:11:55;;;;;;;275.27;217.25;;;32.20;86.40;;;;;;5022225;28;20037;-72
2022/01/28 10:14:25;;;;;;;68.35;47.65;;;32.30;87.50;;;;;;5031048;28;20622;-72
2022/01/28 10:16:59;;;;;;;62.03;43.63;;;32.20;86.90;;;;;;5032505;28;20025;-71
2022/01/28 10:19:36;;;;;;;70.15;48.50;;;32.20;87.80;;;;;;5032235;28;20046;-70
2022/01/28 10:22:03;;;;;;;171.80;139.52;;;32.10;87.60;;;;;;5029916;28;20457;-71
2022/01/28 10:24:29;;;;;;;86.70;56.10;;;32.10;88.90;;;;;;5029580;28;20033;-69
2022/01/28 10:27:05;;;;;;;62.53;38.50;;;32.00;88.20;;;;;;5033272;28;20126;-75
2022/01/28 10:29:37;;;;;;;54.60;37.35;;;31.90;88.90;;;;;;5036292;28;20029;-73
2022/01/28 10:32:06;;;;;;;51.78;34.80;;;31.90;89.00;;;;;;5034139;28;20429;-73
2022/01/28 10:34:37;;;;;;;66.93;39.40;;;31.90;88.20;;;;;;5035715;28;20033;-74
2022/01/28 10:37:18;;;;;;;64.75;41.80;;;31.70;88.00;;;;;;5036034;28;20063;-78
2022/01/28 10:40:00;;;;;;;71.38;44.97;;;31.70;89.70;;;;;;5036059;28;20033;-75
2022/01/28 10:42:39;;;;;;;61.47;42.70;;;31.60;89.60;;;;;;5033804;28;20026;-77
2022/01/28 10:45:14;;;;;;;54.28;37.13;;;31.50;90.10;;;;;;5036293;28;20026;-72
2022/01/28 10:47:44;;;;;;;71.32;47.58;;;31.40;89.60;;;;;;5036204;28;20021;-72
2022/01/28 10:50:18;;;;;;;100.80;62.17;;;31.30;90.20;;;;;;5036411;28;20024;-71
2022/01/28 10:52:44;;;;;;;71.35;47.13;;;31.30;90.00;;;;;;5036315;28;20049;-70
2022/01/28 10:55:18;;;;;;;75.07;52.53;;;31.20;88.70;;;;;;5036321;28;20036;-69
2022/01/28 10:57:58;;;;;;;111.53;36.85;;;31.10;90.20;;;;;;5036388;28;20052;-70
2022/01/28 11:00:29;;;;;;;116.95;60.55;;;31.00;88.80;;;;;;5036333;28;20105;-69
2022/01/28 11:03:00;;;;;;;159.80;47.05;;;30.80;88.90;;;;;;5036389;28;20060;-68
2022/01/28 11:05:29;;;;;;;70.28;43.05;;;30.80;88.90;;;;;;5035456;28;20113;-70
2022/01/28 11:07:57;;;;;;;95.85;63.90;;;30.70;88.80;;;;;;5033745;28;20037;-68
2022/01/28 11:10:24;;;;;;;183.95;125.85;;;30.60;90.10;;;;;;5035522;28;20013;-69
2022/01/28 11:12:55;;;;;;;73.47;48.08;;;30.60;90.00;;;;;;5035313;28;20403;-66
2022/01/28 11:15:22;;;;;;;54.30;36.00;;;30.50;89.50;;;;;;5034991;28;20117;-67
2022/01/28 11:17:52;;;;;;;64.72;42.28;;;30.50;90.20;;;;;;5035259;28;20052;-67
2022/01/28 11:20:23;;;;;;;74.72;45.65;;;30.60;90.60;;;;;;5032800;28;20037;-67
2022/01/28 11:23:05;;;;;;;90.78;50.88;;;30.70;89.80;;;;;;5035354;28;20060;-67
2022/01/28 11:25:46;;;;;;;66.75;43.35;;;30.60;89.10;;;;;;5034534;28;20032;-68
2022/01/28 11:28:14;;;;;;;60.88;42.65;;;30.50;90.00;;;;;;5035453;28;20021;-67
2022/01/28 11:30:51;;;;;;;66.50;40.55;;;30.50;90.10;;;;;;5035305;28;20489;-67
2022/01/28 11:33:19;;;;;;;55.17;37.35;;;30.40;88.40;;;;;;5035679;28;20025;-72
2022/01/28 11:35:54;;;;;;;62.20;36.38;;;30.20;89.30;;;;;;5035771;28;20026;-68
2022/01/28 11:38:37;;;;;;;51.72;35.22;;;30.20;90.30;;;;;;5034630;28;20037;-68
2022/01/28 11:41:15;;;;;;;72.75;46.60;;;30.20;89.70;;;;;;5035761;28;20033;-68
2022/01/28 11:43:51;;;;;;;193.02;143.00;;;30.10;89.90;;;;;;5035603;28;20026;-68
2022/01/28 11:46:27;;;;;;;60.58;40.03;;;30.20;90.10;;;;;;5035623;28;20026;-70
2022/01/28 11:48:58;;;;;;;54.70;37.42;;;30.10;89.80;;;;;;5035326;28;20021;-71
2022/01/28 11:51:35;;;;;;;47.83;32.92;;;30.10;89.40;;;;;;5035475;28;20033;-70
2022/01/28 11:54:15;;;;;;;67.57;43.88;;;30.10;90.40;;;;;;5035374;28;20036;-70
2022/01/28 11:56:56;;;;;;;62.65;41.55;;;30.10;89.40;;;;;;5041070;28;20470;-70
2022/01/28 11:59:27;;;;;;;63.05;38.03;;;30.00;89.70;;;;;;5054828;28;20025;-70
2022/01/28 12:01:53;;;;;;;55.08;35.78;;;30.00;90.50;;;;;;5055102;28;20116;-70
2022/01/28 12:04:29;;;;;;;56.35;36.78;;;30.00;90.90;;;;;;5054805;28;20021;-69
2022/01/28 12:07:09;;;;;;;44.38;30.55;;;30.10;90.70;;;;;;5053483;28;20037;-72
2022/01/28 12:09:37;;;;;;;45.53;29.67;;;30.10;90.70;;;;;;5032850;28;20033;-67
2022/01/28 12:12:09;;;;;;;51.25;32.33;;;30.10;90.90;;;;;;5035796;28;20085;-70
2022/01/28 12:14:52;;;;;;;57.67;37.63;;;30.10;91.40;;;;;;5040283;28;20508;-69
2022/01/28 12:17:30;;;;;;;501.92;448.30;;;30.10;91.90;;;;;;5034909;28;20040;-67
2022/01/28 12:20:09;;;;;;;110.70;82.60;;;30.10;91.20;;;;;;5034642;28;20068;-67
2022/01/28 12:22:56;;;;;;;79.82;55.75;;;30.10;91.30;;;;;;5034510;28;20021;-65
2022/01/28 12:25:37;;;;;;;59.40;38.72;;;30.10;90.90;;;;;;5034040;28;20601;-70
2022/01/28 12:28:17;;;;;;;65.20;41.45;;;30.00;92.00;;;;;;5034061;28;20029;-66
2022/01/28 12:30:48;;;;;;;146.60;104.72;;;30.10;92.00;;;;;;5034240;28;20382;-67
2022/01/28 12:33:19;;;;;;;96.32;66.53;;;30.10;91.90;;;;;;5034140;28;20040;-66
2022/01/28 12:35:49;;;;;;;75.78;46.25;;;30.10;91.80;;;;;;5033850;28;20040;-66
2022/01/28 12:38:21;;;;;;;52.17;32.95;;;30.20;92.10;;;;;;5031837;28;20045;-66
2022/01/28 12:40:51;;;;;;;57.28;34.17;;;30.10;92.00;;;;;;5033839;28;20034;-66
2022/01/28 12:43:20;;;;;;;57.22;34.53;;;30.10;92.00;;;;;;5021634;28;20079;-68
2022/01/28 12:46:05;;;;;;;48.65;34.40;;;30.10;92.30;;;;;;5032223;28;20056;-67
2022/01/28 12:48:33;;;;;;;61.75;36.47;;;30.00;92.50;;;;;;5032658;28;20116;-66
2022/01/28 12:51:02;;;;;;;58.13;34.53;;;30.00;92.80;;;;;;5031930;28;20443;-67
2022/01/28 12:53:36;;;;;;;47.88;31.02;;;30.00;92.50;;;;;;5033286;28;20585;-67
2022/01/28 12:56:04;;;;;;;56.83;31.27;;;29.90;92.90;;;;;;5033540;28;20362;-70
2022/01/28 12:58:47;;;;;;;60.75;31.80;;;29.90;92.80;;;;;;5033730;28;20076;-71
2022/01/28 13:01:17;;;;;;;48.80;29.45;;;29.80;93.30;;;;;;5033009;28;20057;-73
2022/01/28 13:03:53;;;;;;;44.78;28.95;;;29.80;93.70;;;;;;5024737;28;20065;-69
2022/01/28 13:09:22;;;;;;;39.27;28.30;;;29.70;94.20;;;;;;5033591;28;20067;-69
2022/01/28 13:11:57;;;;;;;37.47;25.17;;;29.70;94.10;;;;;;5031044;28;20105;-68
2022/01/28 13:14:32;;;;;;;37.15;25.00;;;29.70;94.00;;;;;;5031848;28;20032;-70
2022/01/28 13:17:05;;;;;;;44.88;25.63;;;29.60;93.90;;;;;;5033720;28;20083;-69
2022/01/28 13:19:33;;;;;;;39.08;23.92;;;29.60;94.30;;;;;;5033408;28;20045;-69
2022/01/28 13:22:00;;;;;;;41.85;25.02;;;29.50;94.20;;;;;;5033500;28;20160;-69
2022/01/28 13:24:29;;;;;;;44.65;25.83;;;29.50;94.50;;;;;;5032769;28;20060;-69
2022/01/28 13:27:06;;;;;;;41.78;26.15;;;29.50;94.50;;;;;;5032874;28;20025;-69
2022/01/28 13:29:39;;;;;;;42.05;25.05;;;29.40;94.60;;;;;;5033365;28;20053;-69
2022/01/28 13:32:12;;;;;;;46.92;28.92;;;29.40;95.00;;;;;;5026470;28;20433;-69
2022/01/28 13:34:47;;;;;;;45.80;30.35;;;29.40;95.00;;;;;;5031131;28;20028;-69
2022/01/28 13:37:40;;;;;;;51.42;29.92;;;29.20;95.20;;;;;;5031988;28;20036;-69
2022/01/28 13:40:19;;;;;;;45.53;29.08;;;29.30;96.10;;;;;;5033332;28;20478;-69
2022/01/28 13:43:05;;;;;;;47.83;30.25;;;29.30;95.40;;;;;;5033449;28;20033;-69
2022/01/28 13:45:36;;;;;;;50.67;31.92;;;29.30;95.50;;;;;;5033360;28;20033;-68
2022/01/28 13:48:05;;;;;;;48.63;30.55;;;29.30;95.70;;;;;;5033418;28;20378;-70
2022/01/28 13:50:35;;;;;;;48.95;28.65;;;29.30;96.00;;;;;;5032980;28;20022;-69
2022/01/28 13:53:34;;;;;;;44.67;27.70;;;29.20;95.90;;;;;;5032485;28;20061;-70
2022/01/28 13:56:04;;;;;;;36.95;26.75;;;29.20;96.40;;;;;;5032932;28;20029;-70
2022/01/28 13:58:45;;;;;;;45.75;27.40;;;29.20;96.40;;;;;;5033267;28;20034;-70
2022/01/28 14:01:11;;;;;;;35.80;25.13;;;29.20;96.40;;;;;;5035288;28;20026;-70